sensor_id;sensor_type;location;lat;lon;timestamp;temperature;humidity
53310;DHT22;39197;53.200;5.792;2022-12-29T00:01:36;9.60;99.90
53310;DHT22;39197;53.200;5.792;2022-12-29T00:04:02;9.70;99.90
53310;DHT22;39197;53.200;5.792;2022-12-29T00:06:28;9.70;99.90
53310;DHT22;39197;53.200;5.792;2022-12-29T00:08:54;9.70;99.90
53310;DHT22;39197;53.200;5.792;2022-12-29T00:11:22;9.70;99.90
53310;DHT22;39197;53.200;5.792;2022-12-29T00:13:49;9.80;99.90
53310;DHT22;39197;53.200;5.792;2022-12-29T00:16:34;9.70;99.90
53310;DHT22;39197;53.200;5.792;2022-12-29T00:19:01;9.70;99.90
53310;DHT22;39197;53.200;5.792;2022-12-29T00:21:27;9.70;99.90
53310;DHT22;39197;53.200;5.792;2022-12-29T00:24:17;9.60;99.90
53310;DHT22;39197;53.200;5.792;2022-12-29T00:29:45;9.60;99.90
53310;DHT22;39197;53.200;5.792;2022-12-29T00:32:29;9.70;99.90
53310;DHT22;39197;53.200;5.792;2022-12-29T00:35:18;9.70;99.90
53310;DHT22;39197;53.200;5.792;2022-12-29T00:37:46;9.70;99.90
53310;DHT22;39197;53.200;5.792;2022-12-29T00:40:51;9.70;99.90
53310;DHT22;39197;53.200;5.792;2022-12-29T00:43:35;9.70;99.90
53310;DHT22;39197;53.200;5.792;2022-12-29T00:46:20;9.70;99.90
53310;DHT22;39197;53.200;5.792;2022-12-29T00:48:45;9.70;99.90
53310;DHT22;39197;53.200;5.792;2022-12-29T00:51:30;9.70;99.90
53310;DHT22;39197;53.200;5.792;2022-12-29T00:53:55;9.70;99.90
53310;DHT22;39197;53.200;5.792;2022-12-29T00:56:21;9.70;99.90
53310;DHT22;39197;53.200;5.792;2022-12-29T00:58:46;9.70;99.90
53310;DHT22;39197;53.200;5.792;2022-12-29T01:01:12;9.70;99.90
53310;DHT22;39197;53.200;5.792;2022-12-29T01:03:38;9.70;99.90
53310;DHT22;39197;53.200;5.792;2022-12-29T01:06:08;9.70;99.90
53310;DHT22;39197;53.200;5.792;2022-12-29T01:08:35;9.70;99.90
53310;DHT22;39197;53.200;5.792;2022-12-29T01:11:03;9.70;99.90
53310;DHT22;39197;53.200;5.792;2022-12-29T01:13:29;9.70;99.90
53310;DHT22;39197;53.200;5.792;2022-12-29T01:15:55;9.70;99.90
53310;DHT22;39197;53.200;5.792;2022-12-29T01:18:22;9.70;99.90
53310;DHT22;39197;53.200;5.792;2022-12-29T01:20:48;9.70;99.90
53310;DHT22;39197;53.200;5.792;2022-12-29T01:23:13;9.70;99.90
53310;DHT22;39197;53.200;5.792;2022-12-29T01:25:39;9.70;99.90
53310;DHT22;39197;53.200;5.792;2022-12-29T01:28:05;9.80;99.90
53310;DHT22;39197;53.200;5.792;2022-12-29T01:30:30;9.70;99.90
53310;DHT22;39197;53.200;5.792;2022-12-29T01:32:56;9.70;99.90
53310;DHT22;39197;53.200;5.792;2022-12-29T01:35:21;9.70;99.90
53310;DHT22;39197;53.200;5.792;2022-12-29T01:37:47;9.70;99.90
53310;DHT22;39197;53.200;5.792;2022-12-29T01:40:12;9.70;99.90
53310;DHT22;39197;53.200;5.792;2022-12-29T01:42:38;9.60;99.90
53310;DHT22;39197;53.200;5.792;2022-12-29T01:45:16;9.60;99.90
53310;DHT22;39197;53.200;5.792;2022-12-29T01:47:46;9.60;99.90
53310;DHT22;39197;53.200;5.792;2022-12-29T01:50:22;9.60;99.90
53310;DHT22;39197;53.200;5.792;2022-12-29T01:52:58;9.50;99.90
53310;DHT22;39197;53.200;5.792;2022-12-29T01:55:27;9.50;99.90
53310;DHT22;39197;53.200;5.792;2022-12-29T01:57:55;9.50;99.90
53310;DHT22;39197;53.200;5.792;2022-12-29T02:00:22;9.50;99.90
53310;DHT22;39197;53.200;5.792;2022-12-29T02:02:51;9.50;99.90
53310;DHT22;39197;53.200;5.792;2022-12-29T02:06:02;9.50;99.90
53310;DHT22;39197;53.200;5.792;2022-12-29T02:08:29;9.50;99.90
53310;DHT22;39197;53.200;5.792;2022-12-29T02:10:56;9.40;99.90
53310;DHT22;39197;53.200;5.792;2022-12-29T02:13:27;9.40;99.90
53310;DHT22;39197;53.200;5.792;2022-12-29T02:21:30;9.30;99.90
53310;DHT22;39197;53.200;5.792;2022-12-29T02:30:35;9.30;99.90
53310;DHT22;39197;53.200;5.792;2022-12-29T02:35:44;9.10;99.90
53310;DHT22;39197;53.200;5.792;2022-12-29T02:38:21;9.10;99.90
53310;DHT22;39197;53.200;5.792;2022-12-29T02:46:29;9.10;99.90
53310;DHT22;39197;53.200;5.792;2022-12-29T02:49:11;9.10;99.90
53310;DHT22;39197;53.200;5.792;2022-12-29T02:52:09;9.10;99.90
53310;DHT22;39197;53.200;5.792;2022-12-29T02:54:32;9.10;99.90
53310;DHT22;39197;53.200;5.792;2022-12-29T02:57:12;9.00;99.90
53310;DHT22;39197;53.200;5.792;2022-12-29T02:59:40;9.00;99.90
53310;DHT22;39197;53.200;5.792;2022-12-29T03:07:25;8.80;99.90
53310;DHT22;39197;53.200;5.792;2022-12-29T03:10:00;8.80;99.90
53310;DHT22;39197;53.200;5.792;2022-12-29T03:12:37;8.80;99.90
53310;DHT22;39197;53.200;5.792;2022-12-29T03:15:38;8.80;99.90
53310;DHT22;39197;53.200;5.792;2022-12-29T03:21:02;8.90;99.90
53310;DHT22;39197;53.200;5.792;2022-12-29T03:23:29;8.80;99.90
53310;DHT22;39197;53.200;5.792;2022-12-29T03:25:59;8.90;99.90
53310;DHT22;39197;53.200;5.792;2022-12-29T03:28:36;8.90;99.90
53310;DHT22;39197;53.200;5.792;2022-12-29T03:31:04;9.00;99.90
53310;DHT22;39197;53.200;5.792;2022-12-29T03:33:32;9.00;99.90
53310;DHT22;39197;53.200;5.792;2022-12-29T03:36:02;9.00;99.90
53310;DHT22;39197;53.200;5.792;2022-12-29T03:38:33;9.10;99.90
53310;DHT22;39197;53.200;5.792;2022-12-29T03:41:04;9.10;99.90
53310;DHT22;39197;53.200;5.792;2022-12-29T03:43:31;9.10;99.90
53310;DHT22;39197;53.200;5.792;2022-12-29T03:45:57;9.10;99.90
53310;DHT22;39197;53.200;5.792;2022-12-29T03:48:22;9.10;99.90
53310;DHT22;39197;53.200;5.792;2022-12-29T03:50:48;9.20;99.90
53310;DHT22;39197;53.200;5.792;2022-12-29T03:53:13;9.10;99.90
53310;DHT22;39197;53.200;5.792;2022-12-29T03:55:39;9.00;99.90
53310;DHT22;39197;53.200;5.792;2022-12-29T03:58:05;9.10;99.90
53310;DHT22;39197;53.200;5.792;2022-12-29T04:00:30;9.00;99.90
53310;DHT22;39197;53.200;5.792;2022-12-29T04:02:56;9.00;99.90
53310;DHT22;39197;53.200;5.792;2022-12-29T04:05:22;9.00;99.90
53310;DHT22;39197;53.200;5.792;2022-12-29T04:07:47;9.00;99.90
53310;DHT22;39197;53.200;5.792;2022-12-29T04:10:13;9.00;99.90
53310;DHT22;39197;53.200;5.792;2022-12-29T04:12:39;8.90;99.90
53310;DHT22;39197;53.200;5.792;2022-12-29T04:15:07;9.00;99.90
53310;DHT22;39197;53.200;5.792;2022-12-29T04:17:33;9.00;99.90
53310;DHT22;39197;53.200;5.792;2022-12-29T04:19:59;9.00;99.90
53310;DHT22;39197;53.200;5.792;2022-12-29T04:22:43;9.00;99.90
53310;DHT22;39197;53.200;5.792;2022-12-29T04:25:09;9.00;99.90
53310;DHT22;39197;53.200;5.792;2022-12-29T04:27:34;9.00;99.90
53310;DHT22;39197;53.200;5.792;2022-12-29T04:30:00;9.00;99.90
53310;DHT22;39197;53.200;5.792;2022-12-29T04:32:25;8.90;99.90
53310;DHT22;39197;53.200;5.792;2022-12-29T04:34:51;8.90;99.90
53310;DHT22;39197;53.200;5.792;2022-12-29T04:37:16;8.90;99.90
53310;DHT22;39197;53.200;5.792;2022-12-29T04:39:42;8.80;99.90
53310;DHT22;39197;53.200;5.792;2022-12-29T04:42:08;8.80;99.90
53310;DHT22;39197;53.200;5.792;2022-12-29T04:44:33;8.80;99.90
53310;DHT22;39197;53.200;5.792;2022-12-29T04:46:59;8.80;99.90
53310;DHT22;39197;53.200;5.792;2022-12-29T04:49:24;8.90;99.90
53310;DHT22;39197;53.200;5.792;2022-12-29T04:51:50;8.80;99.90
53310;DHT22;39197;53.200;5.792;2022-12-29T04:54:15;8.80;99.90
53310;DHT22;39197;53.200;5.792;2022-12-29T04:56:41;8.90;99.90
53310;DHT22;39197;53.200;5.792;2022-12-29T04:59:07;8.90;99.90
53310;DHT22;39197;53.200;5.792;2022-12-29T05:01:32;8.90;99.90
53310;DHT22;39197;53.200;5.792;2022-12-29T05:03:58;9.00;99.90
53310;DHT22;39197;53.200;5.792;2022-12-29T05:06:23;9.00;99.90
53310;DHT22;39197;53.200;5.792;2022-12-29T05:08:49;9.00;99.90
53310;DHT22;39197;53.200;5.792;2022-12-29T05:11:15;9.00;99.90
53310;DHT22;39197;53.200;5.792;2022-12-29T05:13:40;9.00;99.90
53310;DHT22;39197;53.200;5.792;2022-12-29T05:16:06;9.10;99.90
53310;DHT22;39197;53.200;5.792;2022-12-29T05:18:31;9.10;99.90
53310;DHT22;39197;53.200;5.792;2022-12-29T05:20:57;9.00;99.90
53310;DHT22;39197;53.200;5.792;2022-12-29T05:23:23;9.10;99.90
53310;DHT22;39197;53.200;5.792;2022-12-29T05:25:48;9.10;99.90
53310;DHT22;39197;53.200;5.792;2022-12-29T05:28:14;9.10;99.90
53310;DHT22;39197;53.200;5.792;2022-12-29T05:30:39;9.10;99.90
53310;DHT22;39197;53.200;5.792;2022-12-29T05:33:05;9.10;99.90
53310;DHT22;39197;53.200;5.792;2022-12-29T05:35:32;9.10;99.90
53310;DHT22;39197;53.200;5.792;2022-12-29T05:37:58;9.10;99.90
53310;DHT22;39197;53.200;5.792;2022-12-29T05:40:23;9.10;99.90
53310;DHT22;39197;53.200;5.792;2022-12-29T05:42:49;9.00;99.90
53310;DHT22;39197;53.200;5.792;2022-12-29T05:45:14;9.10;99.90
53310;DHT22;39197;53.200;5.792;2022-12-29T05:47:40;9.00;99.90
53310;DHT22;39197;53.200;5.792;2022-12-29T05:50:06;9.10;99.90
53310;DHT22;39197;53.200;5.792;2022-12-29T05:52:31;9.10;99.90
53310;DHT22;39197;53.200;5.792;2022-12-29T05:54:57;9.20;99.90
53310;DHT22;39197;53.200;5.792;2022-12-29T05:57:22;9.20;99.90
53310;DHT22;39197;53.200;5.792;2022-12-29T05:59:48;9.20;99.90
53310;DHT22;39197;53.200;5.792;2022-12-29T06:02:13;9.20;99.90
53310;DHT22;39197;53.200;5.792;2022-12-29T06:04:39;9.20;99.90
53310;DHT22;39197;53.200;5.792;2022-12-29T06:07:04;9.20;99.90
53310;DHT22;39197;53.200;5.792;2022-12-29T06:09:30;9.20;99.90
53310;DHT22;39197;53.200;5.792;2022-12-29T06:11:56;9.20;99.90
53310;DHT22;39197;53.200;5.792;2022-12-29T06:14:21;9.20;99.90
53310;DHT22;39197;53.200;5.792;2022-12-29T06:16:47;9.20;99.90
53310;DHT22;39197;53.200;5.792;2022-12-29T06:19:12;9.10;99.90
53310;DHT22;39197;53.200;5.792;2022-12-29T06:21:38;9.10;99.90
53310;DHT22;39197;53.200;5.792;2022-12-29T06:24:04;9.00;99.90
53310;DHT22;39197;53.200;5.792;2022-12-29T06:26:30;9.00;99.90
53310;DHT22;39197;53.200;5.792;2022-12-29T06:28:56;9.00;99.90
53310;DHT22;39197;53.200;5.792;2022-12-29T06:31:21;9.00;99.90
53310;DHT22;39197;53.200;5.792;2022-12-29T06:33:47;9.00;99.90
53310;DHT22;39197;53.200;5.792;2022-12-29T06:36:12;9.00;99.90
53310;DHT22;39197;53.200;5.792;2022-12-29T06:38:38;9.00;99.90
53310;DHT22;39197;53.200;5.792;2022-12-29T06:41:04;8.90;99.90
53310;DHT22;39197;53.200;5.792;2022-12-29T06:43:29;8.90;99.90
53310;DHT22;39197;53.200;5.792;2022-12-29T06:45:55;8.90;99.90
53310;DHT22;39197;53.200;5.792;2022-12-29T06:48:21;8.90;99.90
53310;DHT22;39197;53.200;5.792;2022-12-29T06:50:47;8.90;99.90
53310;DHT22;39197;53.200;5.792;2022-12-29T06:53:12;8.90;99.90
53310;DHT22;39197;53.200;5.792;2022-12-29T06:55:38;8.90;99.90
53310;DHT22;39197;53.200;5.792;2022-12-29T06:58:03;8.90;99.90
53310;DHT22;39197;53.200;5.792;2022-12-29T07:00:29;9.00;99.90
53310;DHT22;39197;53.200;5.792;2022-12-29T07:02:55;9.00;99.90
53310;DHT22;39197;53.200;5.792;2022-12-29T07:05:23;9.00;99.90
53310;DHT22;39197;53.200;5.792;2022-12-29T07:07:50;9.00;99.90
53310;DHT22;39197;53.200;5.792;2022-12-29T07:10:15;9.00;99.90
53310;DHT22;39197;53.200;5.792;2022-12-29T07:12:41;9.00;99.90
53310;DHT22;39197;53.200;5.792;2022-12-29T07:15:07;9.00;99.90
53310;DHT22;39197;53.200;5.792;2022-12-29T07:17:33;9.00;99.90
53310;DHT22;39197;53.200;5.792;2022-12-29T07:19:58;9.00;99.90
53310;DHT22;39197;53.200;5.792;2022-12-29T07:22:24;9.00;99.90
53310;DHT22;39197;53.200;5.792;2022-12-29T07:24:49;9.00;99.90
53310;DHT22;39197;53.200;5.792;2022-12-29T07:27:15;9.00;99.90
53310;DHT22;39197;53.200;5.792;2022-12-29T07:29:41;9.00;99.90
53310;DHT22;39197;53.200;5.792;2022-12-29T07:32:06;9.20;99.90
53310;DHT22;39197;53.200;5.792;2022-12-29T07:34:32;9.20;99.90
53310;DHT22;39197;53.200;5.792;2022-12-29T07:36:58;10.50;99.90
53310;DHT22;39197;53.200;5.792;2022-12-29T07:39:23;9.00;99.90
53310;DHT22;39197;53.200;5.792;2022-12-29T07:41:49;9.10;99.90
53310;DHT22;39197;53.200;5.792;2022-12-29T07:44:14;9.20;99.90
53310;DHT22;39197;53.200;5.792;2022-12-29T07:46:40;9.30;99.90
53310;DHT22;39197;53.200;5.792;2022-12-29T07:49:05;9.20;99.90
53310;DHT22;39197;53.200;5.792;2022-12-29T07:51:32;9.00;99.90
53310;DHT22;39197;53.200;5.792;2022-12-29T07:53:57;9.10;99.90
53310;DHT22;39197;53.200;5.792;2022-12-29T07:56:25;9.10;99.90
53310;DHT22;39197;53.200;5.792;2022-12-29T07:58:51;9.10;99.90
53310;DHT22;39197;53.200;5.792;2022-12-29T08:01:16;9.10;99.90
53310;DHT22;39197;53.200;5.792;2022-12-29T08:03:42;9.10;99.90
53310;DHT22;39197;53.200;5.792;2022-12-29T08:06:11;9.10;99.90
53310;DHT22;39197;53.200;5.792;2022-12-29T08:08:37;9.10;99.90
53310;DHT22;39197;53.200;5.792;2022-12-29T08:11:03;9.40;99.90
53310;DHT22;39197;53.200;5.792;2022-12-29T08:13:29;9.10;99.90
53310;DHT22;39197;53.200;5.792;2022-12-29T08:15:55;9.10;99.90
53310;DHT22;39197;53.200;5.792;2022-12-29T08:18:22;8.90;99.90
53310;DHT22;39197;53.200;5.792;2022-12-29T08:20:48;9.10;99.90
53310;DHT22;39197;53.200;5.792;2022-12-29T08:23:13;9.10;99.90
53310;DHT22;39197;53.200;5.792;2022-12-29T08:25:39;9.10;99.90
53310;DHT22;39197;53.200;5.792;2022-12-29T08:28:04;9.20;99.90
53310;DHT22;39197;53.200;5.792;2022-12-29T08:30:30;9.10;99.90
53310;DHT22;39197;53.200;5.792;2022-12-29T08:32:55;9.20;99.90
53310;DHT22;39197;53.200;5.792;2022-12-29T08:35:21;9.10;99.90
53310;DHT22;39197;53.200;5.792;2022-12-29T08:37:47;9.10;99.90
53310;DHT22;39197;53.200;5.792;2022-12-29T08:40:12;9.00;99.90
53310;DHT22;39197;53.200;5.792;2022-12-29T08:42:39;9.10;99.90
53310;DHT22;39197;53.200;5.792;2022-12-29T08:45:06;9.10;99.90
53310;DHT22;39197;53.200;5.792;2022-12-29T08:47:31;9.20;99.90
53310;DHT22;39197;53.200;5.792;2022-12-29T08:49:57;9.20;99.90
53310;DHT22;39197;53.200;5.792;2022-12-29T08:52:22;9.20;99.90
53310;DHT22;39197;53.200;5.792;2022-12-29T08:54:48;9.20;99.90
53310;DHT22;39197;53.200;5.792;2022-12-29T08:57:14;9.20;99.90
53310;DHT22;39197;53.200;5.792;2022-12-29T08:59:39;9.10;99.90
53310;DHT22;39197;53.200;5.792;2022-12-29T09:02:05;9.10;99.90
53310;DHT22;39197;53.200;5.792;2022-12-29T09:04:31;9.00;99.90
53310;DHT22;39197;53.200;5.792;2022-12-29T09:06:56;9.10;99.90
53310;DHT22;39197;53.200;5.792;2022-12-29T09:09:22;9.00;99.90
53310;DHT22;39197;53.200;5.792;2022-12-29T09:11:48;9.00;99.90
53310;DHT22;39197;53.200;5.792;2022-12-29T09:14:14;8.90;99.90
53310;DHT22;39197;53.200;5.792;2022-12-29T09:16:39;8.90;99.90
53310;DHT22;39197;53.200;5.792;2022-12-29T09:19:23;8.90;99.90
53310;DHT22;39197;53.200;5.792;2022-12-29T09:21:49;8.90;99.90
53310;DHT22;39197;53.200;5.792;2022-12-29T09:24:15;8.80;99.90
53310;DHT22;39197;53.200;5.792;2022-12-29T09:26:40;8.70;99.90
53310;DHT22;39197;53.200;5.792;2022-12-29T09:29:06;8.70;99.90
53310;DHT22;39197;53.200;5.792;2022-12-29T09:31:31;8.70;99.90
53310;DHT22;39197;53.200;5.792;2022-12-29T09:33:57;8.70;99.90
53310;DHT22;39197;53.200;5.792;2022-12-29T09:36:22;8.70;99.90
53310;DHT22;39197;53.200;5.792;2022-12-29T09:38:48;8.70;99.90
53310;DHT22;39197;53.200;5.792;2022-12-29T09:41:46;8.70;99.90
53310;DHT22;39197;53.200;5.792;2022-12-29T09:47:19;8.60;99.90
53310;DHT22;39197;53.200;5.792;2022-12-29T09:49:53;8.60;99.90
53310;DHT22;39197;53.200;5.792;2022-12-29T09:52:23;8.60;99.90
53310;DHT22;39197;53.200;5.792;2022-12-29T09:55:09;8.60;99.90
53310;DHT22;39197;53.200;5.792;2022-12-29T10:00:13;8.50;99.90
53310;DHT22;39197;53.200;5.792;2022-12-29T10:02:52;8.50;99.90
53310;DHT22;39197;53.200;5.792;2022-12-29T10:05:43;8.50;99.90
53310;DHT22;39197;53.200;5.792;2022-12-29T10:08:29;8.50;99.90
53310;DHT22;39197;53.200;5.792;2022-12-29T10:11:03;8.60;99.90
53310;DHT22;39197;53.200;5.792;2022-12-29T10:22:51;8.50;99.90
53310;DHT22;39197;53.200;5.792;2022-12-29T10:25:25;8.60;99.90
53310;DHT22;39197;53.200;5.792;2022-12-29T10:27:54;8.60;99.90
53310;DHT22;39197;53.200;5.792;2022-12-29T10:30:22;8.70;99.90
53310;DHT22;39197;53.200;5.792;2022-12-29T10:32:56;8.80;99.90
53310;DHT22;39197;53.200;5.792;2022-12-29T10:35:31;8.70;99.90
53310;DHT22;39197;53.200;5.792;2022-12-29T10:40:43;8.90;99.90
53310;DHT22;39197;53.200;5.792;2022-12-29T10:43:47;8.90;99.90
53310;DHT22;39197;53.200;5.792;2022-12-29T10:46:23;9.00;99.90
53310;DHT22;39197;53.200;5.792;2022-12-29T10:48:50;8.90;99.90
53310;DHT22;39197;53.200;5.792;2022-12-29T10:51:28;9.00;99.90
53310;DHT22;39197;53.200;5.792;2022-12-29T10:54:03;9.00;99.90
53310;DHT22;39197;53.200;5.792;2022-12-29T10:56:38;9.00;99.90
53310;DHT22;39197;53.200;5.792;2022-12-29T10:59:26;9.00;99.90
53310;DHT22;39197;53.200;5.792;2022-12-29T11:07:24;9.10;99.90
53310;DHT22;39197;53.200;5.792;2022-12-29T11:09:51;9.10;99.90
53310;DHT22;39197;53.200;5.792;2022-12-29T11:12:20;9.20;99.90
53310;DHT22;39197;53.200;5.792;2022-12-29T11:14:47;9.50;99.90
53310;DHT22;39197;53.200;5.792;2022-12-29T11:17:16;9.80;99.90
53310;DHT22;39197;53.200;5.792;2022-12-29T11:19:43;9.90;99.90
53310;DHT22;39197;53.200;5.792;2022-12-29T11:22:14;10.10;99.90
53310;DHT22;39197;53.200;5.792;2022-12-29T11:24:47;9.90;99.90
53310;DHT22;39197;53.200;5.792;2022-12-29T11:27:21;9.80;99.90
53310;DHT22;39197;53.200;5.792;2022-12-29T11:29:49;9.70;99.90
53310;DHT22;39197;53.200;5.792;2022-12-29T11:32:28;9.60;99.90
53310;DHT22;39197;53.200;5.792;2022-12-29T11:34:58;9.40;99.90
53310;DHT22;39197;53.200;5.792;2022-12-29T11:37:29;9.30;99.90
53310;DHT22;39197;53.200;5.792;2022-12-29T11:39:59;9.30;99.90
53310;DHT22;39197;53.200;5.792;2022-12-29T11:42:46;9.20;99.90
53310;DHT22;39197;53.200;5.792;2022-12-29T11:45:42;9.10;99.90
53310;DHT22;39197;53.200;5.792;2022-12-29T11:48:17;9.40;99.90
53310;DHT22;39197;53.200;5.792;2022-12-29T11:50:56;9.90;99.90
53310;DHT22;39197;53.200;5.792;2022-12-29T11:53:27;10.30;99.90
53310;DHT22;39197;53.200;5.792;2022-12-29T11:55:59;10.70;99.90
53310;DHT22;39197;53.200;5.792;2022-12-29T11:58:30;10.90;99.90
53310;DHT22;39197;53.200;5.792;2022-12-29T12:01:02;11.30;99.90
53310;DHT22;39197;53.200;5.792;2022-12-29T12:03:30;11.30;99.90
53310;DHT22;39197;53.200;5.792;2022-12-29T12:06:00;11.50;99.90
53310;DHT22;39197;53.200;5.792;2022-12-29T12:08:41;11.60;99.90
53310;DHT22;39197;53.200;5.792;2022-12-29T12:11:21;11.80;99.90
53310;DHT22;39197;53.200;5.792;2022-12-29T12:14:01;11.90;99.90
53310;DHT22;39197;53.200;5.792;2022-12-29T12:16:33;11.90;99.90
53310;DHT22;39197;53.200;5.792;2022-12-29T12:21:54;11.70;99.90
53310;DHT22;39197;53.200;5.792;2022-12-29T12:30:04;11.60;99.90
53310;DHT22;39197;53.200;5.792;2022-12-29T12:33:02;11.60;99.90
53310;DHT22;39197;53.200;5.792;2022-12-29T12:35:43;11.50;99.90
53310;DHT22;39197;53.200;5.792;2022-12-29T12:38:18;11.50;99.90
53310;DHT22;39197;53.200;5.792;2022-12-29T12:41:04;11.20;99.90
53310;DHT22;39197;53.200;5.792;2022-12-29T13:00:12;9.70;99.90
53310;DHT22;39197;53.200;5.792;2022-12-29T13:02:52;9.70;99.90
53310;DHT22;39197;53.200;5.792;2022-12-29T13:08:19;9.60;99.90
53310;DHT22;39197;53.200;5.792;2022-12-29T13:19:41;9.40;99.90
53310;DHT22;39197;53.200;5.792;2022-12-29T13:25:25;9.50;99.90
53310;DHT22;39197;53.200;5.792;2022-12-29T13:33:21;9.90;99.90
53310;DHT22;39197;53.200;5.792;2022-12-29T13:35:59;9.80;99.90
53310;DHT22;39197;53.200;5.792;2022-12-29T13:38:36;9.70;99.90
53310;DHT22;39197;53.200;5.792;2022-12-29T13:41:36;9.60;99.90
53310;DHT22;39197;53.200;5.792;2022-12-29T13:44:05;9.60;99.90
53310;DHT22;39197;53.200;5.792;2022-12-29T13:46:39;9.50;99.90
53310;DHT22;39197;53.200;5.792;2022-12-29T13:49:13;9.50;99.90
53310;DHT22;39197;53.200;5.792;2022-12-29T13:51:43;9.40;99.90
53310;DHT22;39197;53.200;5.792;2022-12-29T13:59:59;9.40;99.90
53310;DHT22;39197;53.200;5.792;2022-12-29T14:07:43;9.30;99.90
53310;DHT22;39197;53.200;5.792;2022-12-29T14:15:39;9.00;99.90
53310;DHT22;39197;53.200;5.792;2022-12-29T14:20:38;8.90;99.90
53310;DHT22;39197;53.200;5.792;2022-12-29T14:25:57;8.80;99.90
53310;DHT22;39197;53.200;5.792;2022-12-29T14:28:28;8.70;99.90
53310;DHT22;39197;53.200;5.792;2022-12-29T14:31:02;8.70;99.90
53310;DHT22;39197;53.200;5.792;2022-12-29T14:33:31;8.60;99.90
53310;DHT22;39197;53.200;5.792;2022-12-29T14:38:48;8.70;99.90
53310;DHT22;39197;53.200;5.792;2022-12-29T14:41:35;8.60;99.90
53310;DHT22;39197;53.200;5.792;2022-12-29T14:44:18;8.60;99.90
53310;DHT22;39197;53.200;5.792;2022-12-29T14:49:21;8.50;99.90
53310;DHT22;39197;53.200;5.792;2022-12-29T14:51:51;8.50;99.90
53310;DHT22;39197;53.200;5.792;2022-12-29T14:54:42;8.40;99.90
53310;DHT22;39197;53.200;5.792;2022-12-29T14:57:29;8.40;99.90
53310;DHT22;39197;53.200;5.792;2022-12-29T15:00:04;8.40;99.90
53310;DHT22;39197;53.200;5.792;2022-12-29T15:02:38;8.40;99.90
53310;DHT22;39197;53.200;5.792;2022-12-29T15:05:19;8.30;99.90
53310;DHT22;39197;53.200;5.792;2022-12-29T15:07:47;8.40;99.90
53310;DHT22;39197;53.200;5.792;2022-12-29T15:10:15;8.40;99.90
53310;DHT22;39197;53.200;5.792;2022-12-29T15:12:54;8.40;99.90
53310;DHT22;39197;53.200;5.792;2022-12-29T15:15:25;8.40;99.90
53310;DHT22;39197;53.200;5.792;2022-12-29T15:17:52;8.30;99.90
53310;DHT22;39197;53.200;5.792;2022-12-29T15:20:29;8.40;99.90
53310;DHT22;39197;53.200;5.792;2022-12-29T15:22:56;8.40;99.90
53310;DHT22;39197;53.200;5.792;2022-12-29T15:25:24;8.40;99.90
53310;DHT22;39197;53.200;5.792;2022-12-29T15:27:59;8.40;99.90
53310;DHT22;39197;53.200;5.792;2022-12-29T15:30:26;8.40;99.90
53310;DHT22;39197;53.200;5.792;2022-12-29T15:32:51;8.40;99.90
53310;DHT22;39197;53.200;5.792;2022-12-29T15:35:37;8.40;99.90
53310;DHT22;39197;53.200;5.792;2022-12-29T15:38:19;8.40;99.90
53310;DHT22;39197;53.200;5.792;2022-12-29T15:40:46;8.40;99.90
53310;DHT22;39197;53.200;5.792;2022-12-29T15:45:56;8.40;99.90
53310;DHT22;39197;53.200;5.792;2022-12-29T15:48:23;8.40;99.90
53310;DHT22;39197;53.200;5.792;2022-12-29T15:50:51;8.30;99.90
53310;DHT22;39197;53.200;5.792;2022-12-29T15:53:26;8.30;99.90
53310;DHT22;39197;53.200;5.792;2022-12-29T15:55:59;8.10;99.90
53310;DHT22;39197;53.200;5.792;2022-12-29T15:58:28;8.10;99.90
53310;DHT22;39197;53.200;5.792;2022-12-29T16:00:57;8.00;99.90
53310;DHT22;39197;53.200;5.792;2022-12-29T16:03:25;8.00;99.90
53310;DHT22;39197;53.200;5.792;2022-12-29T16:05:58;7.90;99.90
53310;DHT22;39197;53.200;5.792;2022-12-29T16:08:42;8.00;99.90
53310;DHT22;39197;53.200;5.792;2022-12-29T16:11:22;8.00;99.90
53310;DHT22;39197;53.200;5.792;2022-12-29T16:13:52;7.90;99.90
53310;DHT22;39197;53.200;5.792;2022-12-29T16:16:26;7.90;99.90
53310;DHT22;39197;53.200;5.792;2022-12-29T16:18:53;7.90;99.90
53310;DHT22;39197;53.200;5.792;2022-12-29T16:23:52;7.80;99.90
53310;DHT22;39197;53.200;5.792;2022-12-29T16:26:19;7.80;99.90
53310;DHT22;39197;53.200;5.792;2022-12-29T16:28:49;7.70;99.90
53310;DHT22;39197;53.200;5.792;2022-12-29T16:31:24;7.60;99.90
53310;DHT22;39197;53.200;5.792;2022-12-29T16:33:52;7.60;99.90
53310;DHT22;39197;53.200;5.792;2022-12-29T16:36:27;7.50;99.90
53310;DHT22;39197;53.200;5.792;2022-12-29T16:39:16;7.50;99.90
53310;DHT22;39197;53.200;5.792;2022-12-29T16:41:44;7.40;99.90
53310;DHT22;39197;53.200;5.792;2022-12-29T16:44:21;7.40;99.90
53310;DHT22;39197;53.200;5.792;2022-12-29T16:47:05;7.40;99.90
53310;DHT22;39197;53.200;5.792;2022-12-29T16:49:44;7.40;99.90
53310;DHT22;39197;53.200;5.792;2022-12-29T16:52:16;7.40;99.90
53310;DHT22;39197;53.200;5.792;2022-12-29T16:54:49;7.40;99.90
53310;DHT22;39197;53.200;5.792;2022-12-29T16:57:21;7.30;99.90
53310;DHT22;39197;53.200;5.792;2022-12-29T16:59:51;7.40;99.90
53310;DHT22;39197;53.200;5.792;2022-12-29T17:02:20;7.40;99.90
53310;DHT22;39197;53.200;5.792;2022-12-29T17:04:47;7.40;99.90
53310;DHT22;39197;53.200;5.792;2022-12-29T17:07:20;7.40;99.90
53310;DHT22;39197;53.200;5.792;2022-12-29T17:09:46;7.50;99.90
53310;DHT22;39197;53.200;5.792;2022-12-29T17:12:20;7.50;99.90
53310;DHT22;39197;53.200;5.792;2022-12-29T17:14:56;7.60;99.90
53310;DHT22;39197;53.200;5.792;2022-12-29T17:17:42;7.60;99.90
53310;DHT22;39197;53.200;5.792;2022-12-29T17:20:16;7.70;99.90
53310;DHT22;39197;53.200;5.792;2022-12-29T17:22:42;7.80;99.90
53310;DHT22;39197;53.200;5.792;2022-12-29T17:25:16;7.90;99.90
53310;DHT22;39197;53.200;5.792;2022-12-29T17:27:44;7.90;99.90
53310;DHT22;39197;53.200;5.792;2022-12-29T17:30:15;7.90;99.90
53310;DHT22;39197;53.200;5.792;2022-12-29T17:32:43;7.90;99.90
53310;DHT22;39197;53.200;5.792;2022-12-29T17:35:16;7.90;99.90
53310;DHT22;39197;53.200;5.792;2022-12-29T17:37:42;7.90;99.90
53310;DHT22;39197;53.200;5.792;2022-12-29T17:40:34;7.90;99.90
53310;DHT22;39197;53.200;5.792;2022-12-29T17:42:59;7.90;99.90
53310;DHT22;39197;53.200;5.792;2022-12-29T17:45:27;7.80;99.90
53310;DHT22;39197;53.200;5.792;2022-12-29T17:47:54;7.80;99.90
53310;DHT22;39197;53.200;5.792;2022-12-29T17:50:23;7.80;99.90
53310;DHT22;39197;53.200;5.792;2022-12-29T17:52:52;7.80;99.90
53310;DHT22;39197;53.200;5.792;2022-12-29T17:55:20;7.90;99.90
53310;DHT22;39197;53.200;5.792;2022-12-29T17:57:46;7.90;99.90
53310;DHT22;39197;53.200;5.792;2022-12-29T18:00:22;7.90;99.90
53310;DHT22;39197;53.200;5.792;2022-12-29T18:02:48;7.90;99.90
53310;DHT22;39197;53.200;5.792;2022-12-29T18:05:20;7.90;99.90
53310;DHT22;39197;53.200;5.792;2022-12-29T18:07:48;7.90;99.90
53310;DHT22;39197;53.200;5.792;2022-12-29T18:10:14;7.90;99.90
53310;DHT22;39197;53.200;5.792;2022-12-29T18:12:45;7.90;99.90
53310;DHT22;39197;53.200;5.792;2022-12-29T18:17:46;7.80;99.90
53310;DHT22;39197;53.200;5.792;2022-12-29T18:20:12;7.80;99.90